Time;durP1;ratioP1;P1;durP2;ratioP2;P2;SDS_P1;SDS_P2;PMS_P1;PMS_P2;Temp;Humidity;BMP_temperature;BMP_pressure;BME280_temperature;BME280_humidity;BME280_pressure;Samples;Min_cycle;Max_cycle;Signal;HPM_P1;HPM_P2
2021/01/17 00:00:46;;;;;;;5.85;4.40;;;4.40;63.10;;;;;;5021585;28;20037;-77
2021/01/17 00:03:12;;;;;;;5.22;3.97;;;4.40;63.10;;;;;;5025091;28;20099;-77
2021/01/17 00:05:38;;;;;;;9.50;5.07;;;4.40;63.10;;;;;;5021833;28;20378;-76
2021/01/17 00:08:11;;;;;;;4.68;4.05;;;4.40;63.10;;;;;;5027280;28;20056;-76
2021/01/17 00:10:37;;;;;;;5.45;4.50;;;4.40;63.10;;;;;;5023362;28;20032;-76
2021/01/17 00:13:03;;;;;;;5.97;4.78;;;4.40;63.10;;;;;;5024315;28;20062;-76
2021/01/17 00:15:29;;;;;;;5.50;4.85;;;4.40;63.10;;;;;;5021795;28;20043;-77
2021/01/17 00:17:54;;;;;;;6.88;5.03;;;4.40;63.10;;;;;;5025767;28;20441;-76
2021/01/17 00:20:22;;;;;;;5.88;4.43;;;4.40;63.10;;;;;;5024852;28;20033;-76
2021/01/17 00:22:48;;;;;;;6.20;4.57;;;4.50;63.10;;;;;;5023071;28;20029;-76
2021/01/17 00:25:17;;;;;;;6.75;4.75;;;4.40;63.10;;;;;;5024834;28;20362;-76
2021/01/17 00:27:43;;;;;;;5.93;4.32;;;4.40;63.20;;;;;;5022295;28;20105;-76
2021/01/17 00:30:09;;;;;;;5.72;4.63;;;4.40;63.20;;;;;;5019891;28;20494;-76
2021/01/17 00:32:35;;;;;;;6.20;4.88;;;4.40;63.50;;;;;;5022942;28;20029;-76
2021/01/17 00:35:02;;;;;;;6.85;4.90;;;4.40;63.20;;;;;;5025154;28;20035;-76
2021/01/17 00:37:28;;;;;;;6.90;4.70;;;4.40;63.20;;;;;;5022718;28;20105;-76
2021/01/17 00:39:53;;;;;;;6.00;4.55;;;4.50;63.20;;;;;;5025372;28;20060;-76
2021/01/17 00:42:19;;;;;;;6.30;5.18;;;4.40;63.20;;;;;;5023534;28;20033;-76
2021/01/17 00:44:44;;;;;;;5.95;4.53;;;4.50;63.30;;;;;;5020220;28;20036;-76
2021/01/17 00:47:11;;;;;;;7.18;5.00;;;4.40;63.20;;;;;;5029555;28;20386;-76
2021/01/17 00:49:37;;;;;;;6.85;4.82;;;4.40;63.20;;;;;;5025825;28;20029;-76
2021/01/17 00:52:03;;;;;;;5.82;4.53;;;4.40;63.20;;;;;;5020561;28;20034;-76
2021/01/17 00:54:28;;;;;;;6.38;5.07;;;4.50;63.30;;;;;;5024640;28;20830;-76
2021/01/17 00:56:54;;;;;;;9.43;5.55;;;4.40;63.20;;;;;;5016852;28;20018;-76
2021/01/17 00:59:19;;;;;;;6.82;5.25;;;4.40;63.30;;;;;;5023801;28;20026;-76
2021/01/17 01:01:46;;;;;;;5.88;4.93;;;4.40;63.30;;;;;;5022821;28;20487;-76
2021/01/17 01:04:15;;;;;;;5.85;4.68;;;4.40;63.30;;;;;;5023510;28;20034;-76
2021/01/17 01:06:40;;;;;;;7.03;5.13;;;4.40;63.40;;;;;;5023876;28;20033;-76
2021/01/17 01:09:12;;;;;;;6.15;4.90;;;4.40;63.40;;;;;;5027178;28;20026;-76
2021/01/17 01:11:38;;;;;;;6.85;4.78;;;4.40;63.40;;;;;;5026564;28;20430;-76
2021/01/17 01:14:05;;;;;;;6.28;4.57;;;4.40;63.40;;;;;;5013467;28;20026;-76
2021/01/17 01:16:31;;;;;;;8.13;5.93;;;4.40;63.30;;;;;;5025752;28;20026;-76
2021/01/17 01:18:57;;;;;;;8.13;5.65;;;4.40;63.30;;;;;;5023267;28;20030;-76
2021/01/17 01:21:33;;;;;;;7.05;5.38;;;4.40;63.40;;;;;;5028580;28;20030;-76
2021/01/17 01:23:59;;;;;;;8.43;5.90;;;4.40;63.40;;;;;;5021178;28;20069;-76
2021/01/17 01:26:25;;;;;;;5.53;4.68;;;4.40;63.30;;;;;;5032582;28;20378;-76
2021/01/17 01:28:54;;;;;;;7.28;6.00;;;4.40;63.30;;;;;;5020648;28;20032;-77
2021/01/17 01:31:21;;;;;;;6.72;5.70;;;4.30;63.30;;;;;;5026330;28;20041;-76
2021/01/17 01:33:48;;;;;;;8.20;5.82;;;4.30;63.30;;;;;;5028543;28;20120;-76
2021/01/17 01:36:21;;;;;;;6.63;5.25;;;4.30;63.30;;;;;;5019180;28;20096;-75
2021/01/17 01:38:47;;;;;;;6.82;5.07;;;4.40;63.40;;;;;;5030337;28;20563;-76
2021/01/17 01:41:13;;;;;;;5.07;4.15;;;4.40;63.40;;;;;;5023508;28;20398;-76
2021/01/17 01:43:40;;;;;;;6.80;5.55;;;4.40;63.50;;;;;;5030905;28;20025;-76
2021/01/17 01:46:06;;;;;;;8.30;6.00;;;4.30;63.40;;;;;;5023756;28;20074;-76
2021/01/17 01:48:33;;;;;;;8.57;5.63;;;4.40;63.50;;;;;;5035470;28;20033;-76
2021/01/17 01:51:00;;;;;;;7.45;5.35;;;4.30;63.40;;;;;;5025221;28;20026;-76
2021/01/17 01:53:26;;;;;;;6.03;5.00;;;4.40;63.40;;;;;;5024574;28;20022;-74
2021/01/17 01:55:52;;;;;;;6.35;4.97;;;4.30;63.40;;;;;;5024299;28;20363;-76
2021/01/17 01:58:22;;;;;;;7.07;5.32;;;4.30;63.40;;;;;;5014662;28;20087;-77
2021/01/17 02:00:47;;;;;;;5.95;5.13;;;4.30;63.40;;;;;;5037919;28;20471;-77
2021/01/17 02:03:13;;;;;;;6.45;4.97;;;4.30;63.40;;;;;;5026196;28;20033;-75
2021/01/17 02:05:38;;;;;;;6.32;4.82;;;4.30;63.50;;;;;;5036944;28;20041;-75
2021/01/17 02:08:21;;;;;;;5.97;4.93;;;4.30;63.50;;;;;;5026761;28;20140;-76
2021/01/17 02:10:47;;;;;;;6.18;5.25;;;4.30;63.60;;;;;;5022743;28;20501;-76
2021/01/17 02:13:18;;;;;;;7.03;5.10;;;4.30;63.50;;;;;;5024209;28;20033;-76
2021/01/17 02:15:47;;;;;;;6.90;5.45;;;4.30;63.50;;;;;;5024971;28;20021;-76
2021/01/17 02:18:15;;;;;;;6.82;5.50;;;4.50;63.60;;;;;;5024376;28;20034;-76
2021/01/17 02:20:42;;;;;;;6.40;5.05;;;4.30;63.50;;;;;;5024011;28;20083;-76
2021/01/17 02:23:15;;;;;;;6.72;5.63;;;4.30;63.50;;;;;;5024933;28;20041;-76
2021/01/17 02:25:41;;;;;;;5.43;4.85;;;4.40;63.60;;;;;;5024697;28;20076;-76
2021/01/17 02:28:10;;;;;;;6.53;4.90;;;4.30;63.50;;;;;;5021892;28;20561;-76
2021/01/17 02:30:45;;;;;;;5.72;4.93;;;4.30;63.50;;;;;;5024746;28;20017;-76
2021/01/17 02:33:14;;;;;;;7.20;5.40;;;4.30;63.50;;;;;;5022013;28;20056;-76
2021/01/17 02:35:40;;;;;;;7.50;6.07;;;4.30;63.40;;;;;;5021003;28;20029;-76
2021/01/17 02:38:15;;;;;;;6.88;5.40;;;4.30;63.40;;;;;;5021947;28;20172;-76
2021/01/17 02:41:06;;;;;;;7.75;6.03;;;4.30;63.40;;;;;;5022893;28;20107;-76
2021/01/17 02:43:33;;;;;;;6.45;5.30;;;4.30;63.60;;;;;;5021053;28;20029;-76
2021/01/17 02:45:58;;;;;;;7.25;5.68;;;4.30;63.50;;;;;;5021665;28;20067;-76
2021/01/17 02:48:24;;;;;;;6.63;5.22;;;4.30;63.50;;;;;;5024697;28;20034;-76
2021/01/17 02:50:49;;;;;;;6.35;5.30;;;4.30;63.50;;;;;;5025493;28;20576;-76
2021/01/17 02:53:36;;;;;;;7.40;5.55;;;4.20;63.50;;;;;;5023241;28;20049;-76
2021/01/17 02:56:06;;;;;;;6.03;5.28;;;4.20;63.70;;;;;;5021225;28;20044;-75
2021/01/17 02:58:33;;;;;;;7.68;5.45;;;4.20;63.50;;;;;;5024681;28;20026;-76
2021/01/17 03:01:01;;;;;;;7.93;5.85;;;4.20;63.60;;;;;;5022615;28;20082;-76
2021/01/17 03:03:39;;;;;;;7.60;5.72;;;4.30;63.70;;;;;;5023020;28;20121;-76
2021/01/17 03:06:09;;;;;;;6.85;5.38;;;4.20;63.70;;;;;;5025256;28;20033;-75
2021/01/17 03:08:36;;;;;;;6.88;5.57;;;4.30;63.70;;;;;;5021318;28;20429;-76
2021/01/17 03:11:02;;;;;;;6.82;4.95;;;4.30;63.60;;;;;;5025273;28;20463;-76
2021/01/17 03:13:29;;;;;;;7.63;5.43;;;4.20;63.60;;;;;;5024751;28;20040;-75
2021/01/17 03:15:55;;;;;;;6.70;5.18;;;4.30;63.60;;;;;;5021570;28;20045;-76
2021/01/17 03:18:20;;;;;;;7.10;5.38;;;4.30;63.60;;;;;;5023141;28;20172;-76
2021/01/17 03:20:46;;;;;;;6.50;5.38;;;4.20;63.60;;;;;;5022499;28;20048;-76
2021/01/17 03:23:11;;;;;;;7.57;5.30;;;4.20;63.60;;;;;;5020611;28;20060;-76
2021/01/17 03:25:36;;;;;;;6.93;5.82;;;4.20;63.60;;;;;;5018085;28;20509;-76
2021/01/17 03:28:02;;;;;;;5.70;4.90;;;4.20;63.60;;;;;;5025780;28;20033;-76
2021/01/17 03:30:27;;;;;;;7.15;5.22;;;4.30;63.60;;;;;;5023227;28;20543;-76
2021/01/17 03:32:53;;;;;;;8.50;6.32;;;4.20;63.60;;;;;;5026570;28;20025;-76
2021/01/17 03:35:19;;;;;;;7.10;5.20;;;4.20;63.60;;;;;;5036140;23;20628;-75
2021/01/17 03:37:44;;;;;;;8.38;6.10;;;4.20;63.50;;;;;;5012565;28;20055;-75
2021/01/17 03:40:10;;;;;;;6.35;5.38;;;4.30;63.60;;;;;;5005516;28;20021;-76
2021/01/17 03:42:35;;;;;;;7.55;5.53;;;4.20;63.50;;;;;;5006336;28;20356;-75
2021/01/17 03:45:01;;;;;;;7.07;5.60;;;4.20;63.50;;;;;;5009740;28;20087;-76
2021/01/17 03:47:27;;;;;;;6.18;5.15;;;4.30;63.60;;;;;;5011995;28;20045;-76
2021/01/17 03:49:53;;;;;;;7.47;5.57;;;4.20;63.60;;;;;;5045293;28;20021;-73
2021/01/17 03:52:18;;;;;;;7.13;5.53;;;4.20;63.60;;;;;;5028186;28;20080;-75
2021/01/17 03:54:43;;;;;;;6.18;5.28;;;4.30;63.60;;;;;;5042227;28;20044;-76
2021/01/17 03:57:09;;;;;;;6.97;5.50;;;4.30;63.70;;;;;;5037122;28;20657;-76
2021/01/17 03:59:34;;;;;;;6.80;5.00;;;4.30;63.60;;;;;;5039761;28;20030;-75
2021/01/17 04:02:00;;;;;;;7.20;5.93;;;4.20;63.60;;;;;;5029557;28;20027;-77
2021/01/17 04:04:25;;;;;;;7.28;5.72;;;4.20;63.60;;;;;;5040397;28;20436;-77
2021/01/17 04:06:51;;;;;;;8.63;5.78;;;4.30;63.60;;;;;;5054654;28;20370;-75
2021/01/17 04:09:16;;;;;;;6.82;5.72;;;4.20;63.60;;;;;;5041024;28;20066;-77
2021/01/17 04:11:42;;;;;;;7.95;6.10;;;4.20;63.60;;;;;;5056896;28;20570;-75
2021/01/17 04:14:07;;;;;;;6.63;5.25;;;4.30;63.50;;;;;;5043854;28;20055;-76
2021/01/17 04:16:33;;;;;;;7.05;5.55;;;4.30;63.50;;;;;;5043711;28;20041;-76
2021/01/17 04:18:58;;;;;;;7.30;5.30;;;4.20;63.50;;;;;;5046693;28;20020;-76
2021/01/17 04:21:24;;;;;;;7.30;5.22;;;4.30;63.60;;;;;;5045033;28;20079;-75
2021/01/17 04:23:49;;;;;;;8.43;5.80;;;4.20;63.50;;;;;;5047477;28;20119;-77
2021/01/17 04:26:18;;;;;;;6.38;5.03;;;4.30;63.60;;;;;;5041128;28;20031;-76
2021/01/17 04:28:44;;;;;;;6.65;5.22;;;4.30;63.60;;;;;;5050056;28;20032;-78
2021/01/17 04:31:10;;;;;;;6.40;5.22;;;4.20;63.50;;;;;;5040143;28;20032;-76
2021/01/17 04:33:35;;;;;;;6.97;5.28;;;4.20;63.50;;;;;;5047896;28;20052;-76
2021/01/17 04:36:01;;;;;;;5.85;4.97;;;4.20;63.50;;;;;;5044168;28;20037;-75
2021/01/17 04:38:29;;;;;;;6.30;5.53;;;4.30;63.60;;;;;;5049660;28;20026;-75
2021/01/17 04:41:03;;;;;;;6.60;5.38;;;4.30;63.60;;;;;;5031715;28;20028;-75
2021/01/17 04:43:37;;;;;;;5.55;4.60;;;4.30;63.70;;;;;;5047594;28;20065;-77
2021/01/17 04:46:03;;;;;;;7.70;5.65;;;4.30;63.70;;;;;;5047165;28;20104;-76
2021/01/17 04:48:30;;;;;;;6.40;5.22;;;4.30;63.70;;;;;;5044746;28;20061;-77
2021/01/17 04:51:02;;;;;;;7.13;5.40;;;4.30;63.70;;;;;;5050818;28;20087;-76
2021/01/17 04:53:31;;;;;;;8.50;5.28;;;4.20;63.70;;;;;;5030257;28;20034;-76
2021/01/17 04:56:25;;;;;;;5.32;4.65;;;4.30;63.70;;;;;;5038358;28;20032;-75
2021/01/17 04:59:11;;;;;;;6.88;4.95;;;4.30;63.70;;;;;;5026889;28;20060;-76
2021/01/17 05:01:44;;;;;;;7.68;5.22;;;4.30;63.80;;;;;;5024506;28;20052;-76
2021/01/17 05:04:50;;;;;;;5.80;4.72;;;4.30;63.80;;;;;;5026008;28;20033;-76
2021/01/17 05:07:21;;;;;;;5.28;4.40;;;4.30;63.80;;;;;;4947530;29;20046;-76
2021/01/17 05:09:55;;;;;;;5.55;4.72;;;4.30;63.60;;;;;;5011460;28;20039;-76
2021/01/17 05:12:30;;;;;;;7.22;5.60;;;4.30;63.60;;;;;;5025682;28;20052;-75
2021/01/17 05:14:56;;;;;;;5.93;4.88;;;4.30;63.50;;;;;;5024969;28;20116;-76
2021/01/17 05:17:23;;;;;;;5.43;4.43;;;4.30;63.50;;;;;;5025757;28;20108;-76
2021/01/17 05:19:49;;;;;;;6.18;4.75;;;4.30;63.40;;;;;;5030439;28;20021;-77
2021/01/17 05:22:15;;;;;;;6.57;4.93;;;4.30;63.40;;;;;;5027081;28;20426;-75
2021/01/17 05:24:45;;;;;;;4.72;3.95;;;4.30;63.30;;;;;;5030030;28;20029;-76
2021/01/17 05:27:11;;;;;;;5.95;4.75;;;4.30;63.30;;;;;;5027308;28;20445;-76
2021/01/17 05:29:36;;;;;;;6.10;4.65;;;4.30;63.30;;;;;;5027994;28;20108;-76
2021/01/17 05:32:05;;;;;;;5.15;3.80;;;4.30;63.30;;;;;;5028436;28;20121;-76
2021/01/17 05:34:32;;;;;;;5.38;4.22;;;4.30;63.30;;;;;;5028764;28;20026;-75
2021/01/17 05:37:02;;;;;;;6.28;4.78;;;4.30;63.30;;;;;;5029682;28;20025;-75
2021/01/17 05:39:28;;;;;;;5.78;4.40;;;4.30;63.30;;;;;;5028052;28;20021;-74
2021/01/17 05:42:03;;;;;;;4.95;4.25;;;4.30;63.30;;;;;;5031229;28;20037;-74
2021/01/17 05:44:30;;;;;;;5.75;4.22;;;4.30;63.30;;;;;;5028000;28;20430;-76
2021/01/17 05:47:05;;;;;;;4.88;3.80;;;4.20;63.20;;;;;;5023799;28;20120;-76
2021/01/17 05:49:31;;;;;;;5.95;4.20;;;4.20;63.30;;;;;;5025213;28;20728;-76
2021/01/17 05:52:13;;;;;;;5.00;3.90;;;4.20;63.30;;;;;;5029889;28;20037;-76
2021/01/17 05:54:46;;;;;;;4.60;3.67;;;4.10;63.20;;;;;;5026112;28;20750;-77
2021/01/17 05:57:25;;;;;;;6.10;4.10;;;4.20;63.40;;;;;;5027247;28;20037;-76
2021/01/17 05:59:52;;;;;;;4.80;3.50;;;4.20;63.50;;;;;;5048075;28;20025;-76
2021/01/17 06:02:22;;;;;;;5.07;3.88;;;4.20;63.40;;;;;;5047424;28;20112;-76
2021/01/17 06:04:59;;;;;;;5.07;3.80;;;4.20;63.40;;;;;;5046669;28;20033;-76
2021/01/17 06:07:26;;;;;;;5.00;3.70;;;4.20;63.40;;;;;;5046506;28;20025;-76
2021/01/17 06:10:06;;;;;;;6.15;4.47;;;4.20;63.40;;;;;;5047084;28;20021;-76
2021/01/17 06:12:35;;;;;;;4.22;3.47;;;4.20;63.40;;;;;;5047433;28;20017;-75
2021/01/17 06:15:13;;;;;;;5.38;4.38;;;4.10;63.30;;;;;;5048795;28;20025;-78
2021/01/17 06:17:45;;;;;;;4.93;3.80;;;4.20;63.30;;;;;;5045980;28;20042;-76
2021/01/17 06:20:18;;;;;;;4.90;3.35;;;4.20;63.30;;;;;;5048857;28;20035;-75
2021/01/17 06:22:55;;;;;;;5.07;4.03;;;4.10;63.20;;;;;;5044415;28;20040;-75
2021/01/17 06:25:29;;;;;;;3.78;3.38;;;4.20;63.30;;;;;;5047357;28;20037;-75
2021/01/17 06:28:12;;;;;;;4.53;3.65;;;4.10;63.20;;;;;;5046616;28;20033;-77
2021/01/17 06:30:39;;;;;;;4.53;3.28;;;4.20;63.30;;;;;;5047728;28;20087;-76
2021/01/17 06:33:06;;;;;;;4.43;3.67;;;4.10;63.30;;;;;;5045862;28;20475;-75
2021/01/17 06:35:42;;;;;;;4.18;3.22;;;4.10;63.30;;;;;;5047643;28;20557;-76
2021/01/17 06:38:18;;;;;;;4.80;3.55;;;4.20;63.40;;;;;;5044534;28;20063;-76
2021/01/17 06:40:45;;;;;;;5.18;4.00;;;4.20;63.40;;;;;;5047304;28;20106;-77
2021/01/17 06:43:12;;;;;;;4.93;3.75;;;4.20;63.40;;;;;;5045886;28;20029;-76
2021/01/17 06:45:43;;;;;;;4.65;3.30;;;4.20;63.30;;;;;;5046124;28;20537;-76
2021/01/17 06:48:21;;;;;;;5.65;3.85;;;4.20;63.40;;;;;;5047085;28;20171;-75
2021/01/17 06:50:47;;;;;;;4.82;3.83;;;4.20;63.40;;;;;;5049143;28;20021;-76
2021/01/17 06:53:22;;;;;;;4.95;3.92;;;4.10;63.30;;;;;;5047665;28;20385;-76
2021/01/17 06:55:48;;;;;;;5.78;3.75;;;4.10;63.30;;;;;;5049278;28;20036;-76
2021/01/17 06:58:16;;;;;;;5.65;3.88;;;4.20;63.30;;;;;;5047420;28;20029;-75
2021/01/17 07:00:45;;;;;;;4.72;3.90;;;4.10;63.20;;;;;;5046682;28;20104;-75
2021/01/17 07:03:16;;;;;;;4.68;3.65;;;4.20;63.30;;;;;;5048840;28;20508;-74
2021/01/17 07:05:49;;;;;;;5.13;3.88;;;4.20;63.20;;;;;;5047706;28;20040;-75
2021/01/17 07:08:36;;;;;;;5.78;4.32;;;4.10;63.10;;;;;;5047373;28;20033;-75
2021/01/17 07:11:21;;;;;;;4.78;4.10;;;4.20;63.20;;;;;;5049222;28;20041;-75
2021/01/17 07:13:49;;;;;;;4.28;3.50;;;4.10;63.10;;;;;;5047347;28;20059;-75
2021/01/17 07:16:31;;;;;;;5.63;4.10;;;4.10;63.10;;;;;;5046977;28;20390;-75
2021/01/17 07:19:01;;;;;;;4.85;3.70;;;4.10;63.20;;;;;;5045499;28;20029;-75
2021/01/17 07:21:35;;;;;;;4.03;3.35;;;4.10;63.20;;;;;;5044533;28;20025;-74
2021/01/17 07:24:07;;;;;;;5.38;4.03;;;4.10;63.80;;;;;;5044723;28;20029;-75
2021/01/17 07:26:47;;;;;;;5.03;3.88;;;4.10;63.20;;;;;;5042894;28;20126;-75
2021/01/17 07:29:16;;;;;;;5.35;3.70;;;4.10;63.20;;;;;;5046612;28;20666;-77
2021/01/17 07:31:45;;;;;;;4.15;3.20;;;4.10;63.20;;;;;;5048022;28;20083;-75
2021/01/17 07:34:12;;;;;;;5.35;3.78;;;4.20;63.30;;;;;;5043195;28;20028;-75
2021/01/17 07:36:47;;;;;;;5.20;3.97;;;4.10;63.30;;;;;;5044395;28;20041;-75
2021/01/17 07:39:17;;;;;;;5.18;3.92;;;4.00;63.30;;;;;;5042892;28;20175;-75
2021/01/17 07:41:47;;;;;;;4.97;3.83;;;4.00;63.30;;;;;;5047696;28;20029;-75
2021/01/17 07:44:16;;;;;;;4.72;3.95;;;4.10;63.40;;;;;;5028580;28;20138;-74
2021/01/17 07:46:42;;;;;;;5.10;3.72;;;4.00;63.30;;;;;;5041690;28;20092;-75
2021/01/17 07:49:10;;;;;;;5.28;3.80;;;4.00;63.30;;;;;;5047819;28;20033;-74
2021/01/17 07:51:36;;;;;;;4.20;3.38;;;4.10;63.40;;;;;;5044649;28;20038;-75
2021/01/17 07:54:26;;;;;;;5.78;4.10;;;4.00;63.40;;;;;;5048345;28;20021;-74
2021/01/17 07:56:52;;;;;;;4.55;3.42;;;4.10;63.50;;;;;;5020544;28;20072;-75
2021/01/17 07:59:25;;;;;;;5.10;3.50;;;4.10;63.50;;;;;;5028014;28;20029;-74
2021/01/17 08:01:52;;;;;;;5.05;3.85;;;4.10;63.50;;;;;;5025370;28;20033;-74
2021/01/17 08:04:18;;;;;;;5.13;4.18;;;4.10;63.50;;;;;;5026311;28;20021;-75
2021/01/17 08:06:45;;;;;;;5.60;3.88;;;4.00;63.50;;;;;;5026632;28;20513;-75
2021/01/17 08:09:15;;;;;;;5.20;3.63;;;4.10;63.60;;;;;;5025852;28;20029;-74
2021/01/17 08:11:49;;;;;;;4.63;3.67;;;4.10;63.60;;;;;;5026800;28;20033;-75
2021/01/17 08:14:30;;;;;;;5.28;3.92;;;4.10;63.60;;;;;;5023065;28;20256;-75
2021/01/17 08:17:15;;;;;;;5.80;4.40;;;4.10;63.60;;;;;;5025796;28;20554;-74
2021/01/17 08:19:50;;;;;;;4.70;3.83;;;4.10;63.60;;;;;;5026963;28;20113;-74
2021/01/17 08:22:18;;;;;;;5.65;4.25;;;4.10;63.60;;;;;;5026242;28;20124;-75
2021/01/17 08:24:47;;;;;;;5.90;4.15;;;4.10;63.60;;;;;;5025407;28;20030;-74
2021/01/17 08:27:31;;;;;;;4.53;3.15;;;4.10;63.60;;;;;;5023756;28;20029;-77
2021/01/17 08:30:06;;;;;;;5.35;4.25;;;4.10;63.70;;;;;;5022746;28;20025;-73
2021/01/17 08:32:34;;;;;;;6.47;4.60;;;4.10;63.60;;;;;;5025385;28;20382;-75
2021/01/17 08:35:15;;;;;;;5.55;4.03;;;4.10;63.60;;;;;;5027950;28;20486;-75
2021/01/17 08:37:45;;;;;;;5.95;3.92;;;4.10;63.70;;;;;;5024915;28;20048;-74
2021/01/17 08:40:31;;;;;;;7.45;4.15;;;4.10;63.60;;;;;;5025279;28;20109;-75
2021/01/17 08:42:59;;;;;;;5.38;4.13;;;4.10;63.80;;;;;;5030813;28;20028;-76
2021/01/17 08:45:27;;;;;;;5.13;4.00;;;4.10;63.60;;;;;;5036206;28;20034;-76
2021/01/17 08:47:58;;;;;;;6.28;4.53;;;4.10;63.60;;;;;;5041904;28;20498;-72
2021/01/17 08:50:27;;;;;;;6.90;4.50;;;4.20;63.70;;;;;;5034423;28;20532;-75
2021/01/17 08:53:05;;;;;;;6.95;4.72;;;4.10;63.70;;;;;;5021967;28;20030;-73
2021/01/17 08:55:49;;;;;;;6.20;4.75;;;4.20;63.70;;;;;;5026515;28;20028;-77
2021/01/17 08:58:36;;;;;;;5.13;3.95;;;4.10;63.70;;;;;;5024568;28;20030;-74
2021/01/17 09:01:06;;;;;;;5.70;4.10;;;4.20;63.70;;;;;;5031424;28;20029;-78
2021/01/17 09:03:35;;;;;;;6.17;4.47;;;4.20;63.70;;;;;;5037927;28;20617;-77
2021/01/17 09:06:13;;;;;;;4.70;3.80;;;4.20;63.80;;;;;;5038685;28;20269;-76
2021/01/17 09:08:47;;;;;;;4.85;3.75;;;4.20;63.80;;;;;;5032318;28;20033;-76
2021/01/17 09:11:28;;;;;;;6.10;4.25;;;4.20;63.80;;;;;;5025522;28;20091;-76
2021/01/17 09:14:26;;;;;;;5.47;4.00;;;4.20;63.90;;;;;;5024025;28;20032;-72
2021/01/17 09:16:57;;;;;;;4.65;3.97;;;4.20;63.90;;;;;;5039203;28;20056;-75
2021/01/17 09:19:31;;;;;;;6.15;4.35;;;4.20;63.80;;;;;;5024543;28;20491;-77
2021/01/17 09:21:59;;;;;;;5.32;4.13;;;4.20;63.90;;;;;;5022545;28;20033;-76
2021/01/17 09:24:28;;;;;;;5.78;4.25;;;4.30;63.90;;;;;;5027146;28;20475;-75
2021/01/17 09:26:56;;;;;;;5.97;4.05;;;4.30;64.00;;;;;;5022884;28;20450;-73
2021/01/17 09:29:28;;;;;;;7.57;5.63;;;4.30;64.00;;;;;;5057220;28;20021;-76
2021/01/17 09:32:04;;;;;;;6.28;4.75;;;4.30;64.00;;;;;;5022567;28;20091;-75
2021/01/17 09:34:39;;;;;;;5.97;4.70;;;4.30;64.00;;;;;;5025766;28;20025;-76
2021/01/17 09:37:16;;;;;;;7.22;4.82;;;4.30;64.00;;;;;;5026753;28;20033;-76
2021/01/17 09:39:52;;;;;;;7.57;5.13;;;4.40;64.10;;;;;;5028608;28;20038;-78
2021/01/17 09:42:24;;;;;;;6.47;4.70;;;4.40;64.00;;;;;;5025728;28;20363;-74
2021/01/17 09:45:00;;;;;;;6.65;4.75;;;4.40;63.90;;;;;;5029475;28;20037;-77
2021/01/17 09:47:28;;;;;;;5.63;4.50;;;4.50;64.00;;;;;;5026937;28;20371;-76
2021/01/17 09:49:55;;;;;;;5.75;4.53;;;4.50;64.00;;;;;;5029935;28;20041;-76
2021/01/17 09:52:25;;;;;;;6.45;5.47;;;4.50;64.00;;;;;;5026420;28;20026;-77
2021/01/17 09:54:53;;;;;;;6.65;4.80;;;4.50;64.00;;;;;;5024920;28;20030;-76
2021/01/17 09:57:19;;;;;;;5.80;4.47;;;4.60;64.00;;;;;;5027935;28;20029;-77
2021/01/17 09:59:47;;;;;;;6.68;5.25;;;4.60;63.90;;;;;;5028038;28;20125;-78
2021/01/17 10:02:15;;;;;;;5.80;4.43;;;4.60;63.90;;;;;;5028799;28;20029;-78
2021/01/17 10:04:41;;;;;;;6.95;5.07;;;4.60;63.90;;;;;;5026973;28;20021;-77
2021/01/17 10:07:16;;;;;;;7.05;5.13;;;4.60;63.90;;;;;;5026762;28;20720;-78
2021/01/17 10:09:43;;;;;;;7.70;5.55;;;4.70;64.00;;;;;;5025215;28;20022;-77
2021/01/17 10:12:09;;;;;;;5.93;4.47;;;4.60;63.90;;;;;;5028912;28;20099;-75
2021/01/17 10:14:34;;;;;;;7.47;5.63;;;4.70;64.00;;;;;;5026597;28;20483;-78
2021/01/17 10:17:06;;;;;;;6.68;4.95;;;4.70;63.90;;;;;;5029950;28;20565;-77
2021/01/17 10:19:33;;;;;;;7.57;4.85;;;4.70;63.90;;;;;;5030537;28;20037;-78
2021/01/17 10:22:02;;;;;;;7.53;5.68;;;4.70;63.90;;;;;;5028534;28;20036;-78
2021/01/17 10:24:30;;;;;;;7.32;5.32;;;4.80;63.90;;;;;;5028317;28;20034;-78
2021/01/17 10:27:01;;;;;;;7.60;5.53;;;4.70;63.80;;;;;;5029745;28;20490;-78
2021/01/17 10:29:34;;;;;;;8.23;6.28;;;4.80;63.90;;;;;;5031754;28;20029;-76
2021/01/17 10:32:05;;;;;;;6.93;4.65;;;4.80;63.90;;;;;;5024666;28;20033;-77
2021/01/17 10:34:42;;;;;;;6.75;5.07;;;4.80;63.90;;;;;;5041220;28;20068;-73
2021/01/17 10:37:10;;;;;;;6.85;5.47;;;4.80;63.90;;;;;;5050026;28;20068;-73
2021/01/17 10:39:38;;;;;;;7.80;5.38;;;4.80;63.90;;;;;;5050369;28;20040;-72
2021/01/17 10:42:09;;;;;;;10.40;7.13;;;4.80;63.90;;;;;;5044013;28;20029;-73
2021/01/17 10:44:45;;;;;;;10.35;7.13;;;4.80;64.00;;;;;;5044042;28;20551;-71
2021/01/17 10:47:32;;;;;;;8.55;5.90;;;4.80;64.00;;;;;;5047361;28;20033;-72
2021/01/17 10:50:02;;;;;;;7.95;5.55;;;4.80;64.00;;;;;;5042448;28;20517;-72
2021/01/17 10:52:32;;;;;;;6.32;5.00;;;4.90;64.00;;;;;;5052456;28;20489;-72
2021/01/17 10:55:01;;;;;;;6.10;4.53;;;4.80;63.90;;;;;;5029529;28;20078;-72
2021/01/17 10:57:28;;;;;;;6.85;5.20;;;4.90;64.00;;;;;;5042375;28;20063;-73
2021/01/17 10:59:55;;;;;;;6.85;5.20;;;4.90;63.90;;;;;;5043005;28;20108;-72
2021/01/17 11:02:23;;;;;;;7.20;5.65;;;4.90;63.90;;;;;;5042515;28;20424;-71
2021/01/17 11:04:49;;;;;;;8.32;6.18;;;4.90;63.90;;;;;;5037921;28;20334;-71
2021/01/17 11:07:18;;;;;;;9.30;6.40;;;4.90;64.00;;;;;;5030205;28;20071;-73
2021/01/17 11:09:43;;;;;;;8.70;5.97;;;5.00;64.00;;;;;;5024358;28;20021;-71
2021/01/17 11:12:09;;;;;;;8.00;5.78;;;5.00;64.00;;;;;;5030229;28;20032;-72
2021/01/17 11:14:34;;;;;;;6.03;4.88;;;5.00;63.90;;;;;;5042135;28;20021;-74
2021/01/17 11:17:01;;;;;;;6.85;4.80;;;5.00;63.90;;;;;;5047433;28;20074;-73
2021/01/17 11:19:40;;;;;;;7.50;4.95;;;5.00;63.90;;;;;;5039784;28;20021;-72
2021/01/17 11:22:07;;;;;;;9.90;6.90;;;5.00;64.00;;;;;;5021285;28;20380;-72
2021/01/17 11:24:42;;;;;;;7.60;5.35;;;5.00;63.90;;;;;;5027065;28;20026;-76
2021/01/17 11:27:13;;;;;;;8.95;5.88;;;5.00;63.90;;;;;;5023671;28;20099;-73
2021/01/17 11:29:40;;;;;;;8.80;6.10;;;5.10;63.90;;;;;;5024620;28;20423;-72
2021/01/17 11:32:05;;;;;;;8.57;5.85;;;5.20;64.00;;;;;;5024821;28;20068;-73
2021/01/17 11:34:36;;;;;;;7.00;5.00;;;5.10;63.90;;;;;;5014672;28;20079;-75
2021/01/17 11:37:02;;;;;;;7.10;5.57;;;5.10;64.00;;;;;;5019551;28;20025;-71
2021/01/17 11:39:28;;;;;;;7.63;5.43;;;5.10;63.90;;;;;;5024174;28;20053;-73
2021/01/17 11:41:57;;;;;;;8.75;5.78;;;5.20;64.10;;;;;;5033373;28;20476;-75
2021/01/17 11:44:25;;;;;;;8.90;6.18;;;5.20;64.10;;;;;;5023385;28;20038;-73
2021/01/17 11:46:52;;;;;;;8.68;6.15;;;5.20;64.00;;;;;;5026329;28;20124;-72
2021/01/17 11:49:22;;;;;;;8.50;5.82;;;5.20;63.90;;;;;;5029335;28;20028;-73
2021/01/17 11:51:48;;;;;;;7.97;5.78;;;5.20;63.80;;;;;;5025938;28;20048;-72
2021/01/17 11:54:19;;;;;;;7.35;5.28;;;5.20;63.90;;;;;;5028907;28;20030;-74
2021/01/17 11:56:46;;;;;;;6.00;4.40;;;5.20;63.90;;;;;;5026404;28;20029;-73
2021/01/17 11:59:31;;;;;;;5.32;4.32;;;5.30;64.00;;;;;;5029061;28;20034;-74
2021/01/17 12:01:57;;;;;;;7.03;5.80;;;5.30;64.10;;;;;;5021561;28;20033;-72
2021/01/17 12:04:26;;;;;;;8.70;6.78;;;5.30;64.00;;;;;;5028384;28;20030;-73
2021/01/17 12:07:07;;;;;;;7.38;6.40;;;5.30;64.00;;;;;;5020596;28;20029;-74
2021/01/17 12:09:33;;;;;;;9.88;6.53;;;5.30;63.90;;;;;;5027479;28;20391;-73
2021/01/17 12:12:13;;;;;;;8.45;6.22;;;5.30;63.90;;;;;;5028501;28;20498;-73
2021/01/17 12:14:39;;;;;;;8.73;6.85;;;5.40;63.90;;;;;;5022407;28;20081;-74
2021/01/17 12:17:05;;;;;;;10.20;7.13;;;5.30;63.80;;;;;;5027793;28;20033;-74
2021/01/17 12:19:31;;;;;;;8.07;5.93;;;5.40;63.80;;;;;;5027420;28;20034;-74
2021/01/17 12:21:58;;;;;;;9.60;6.20;;;5.40;63.80;;;;;;5024017;28;20441;-74
2021/01/17 12:24:24;;;;;;;10.13;6.75;;;5.30;63.70;;;;;;5027013;28;20025;-72
2021/01/17 12:26:51;;;;;;;8.15;5.82;;;5.40;63.70;;;;;;5025954;28;20438;-74
2021/01/17 12:29:16;;;;;;;9.85;6.47;;;5.40;63.70;;;;;;5023576;28;20044;-74
2021/01/17 12:31:43;;;;;;;9.32;6.50;;;5.40;63.70;;;;;;5025212;28;20030;-74
2021/01/17 12:34:09;;;;;;;11.45;7.97;;;5.40;63.80;;;;;;5028228;28;20033;-73
2021/01/17 12:36:38;;;;;;;10.00;6.55;;;5.40;63.90;;;;;;5023304;28;20049;-73
2021/01/17 12:39:05;;;;;;;7.85;6.40;;;5.40;63.90;;;;;;5025815;28;20067;-74
2021/01/17 12:41:33;;;;;;;9.23;6.53;;;5.50;64.10;;;;;;5024731;28;20028;-74
2021/01/17 12:43:59;;;;;;;7.80;5.93;;;5.50;64.10;;;;;;5024307;28;20099;-74
2021/01/17 12:46:25;;;;;;;8.60;6.05;;;5.40;64.00;;;;;;5021985;28;20030;-74
2021/01/17 12:48:51;;;;;;;8.52;5.88;;;5.50;64.20;;;;;;5020833;28;20071;-74
2021/01/17 12:51:17;;;;;;;8.85;6.43;;;5.50;64.20;;;;;;5023468;28;20033;-74
2021/01/17 12:53:46;;;;;;;9.32;6.63;;;5.60;64.20;;;;;;5022461;28;20382;-74
2021/01/17 12:56:12;;;;;;;8.55;5.82;;;5.50;64.20;;;;;;5023170;28;20390;-74
2021/01/17 12:58:38;;;;;;;7.80;5.75;;;5.50;64.20;;;;;;5021652;28;20454;-74
2021/01/17 13:01:04;;;;;;;7.95;5.97;;;5.60;64.20;;;;;;5017377;28;20032;-73
2021/01/17 13:03:33;;;;;;;8.85;6.07;;;5.50;64.10;;;;;;5018245;28;20030;-72
2021/01/17 13:05:59;;;;;;;8.45;6.05;;;5.60;64.10;;;;;;5015316;28;20033;-73
2021/01/17 13:08:26;;;;;;;6.85;5.45;;;5.60;64.00;;;;;;5018048;28;20436;-73
2021/01/17 13:10:51;;;;;;;9.52;5.95;;;5.60;64.00;;;;;;5026466;28;20104;-74